Data for 08/06/2010

Time Sea-Level Adjusted Pressure Absolute Pressure Temperature Relative Humidity Dew Point   
(mb) (inHg) (mb) (inHg) (C) (F) (%) (C) (F)
00:05 1020 30.12 849 25.07 17.1 62.8 62 9.8 49.6
00:10 1020 30.12 849 25.07 17.2 63 62 10 50
00:15 1020 30.12 849 25.07 17.2 63 62 10 50
00:20 1020 30.12 849 25.07 17 62.6 65 10.4 50.7
00:25 1020 30.12 849 25.07 16.7 62 66 10.4 50.6
00:30 1020 30.12 849 25.07 16.5 61.8 67 10.4 50.8
00:35 1020 30.12 849 25.07 16.5 61.7 65 10 50.1
00:40 1020 30.12 849 25.07 16.6 62 64 9.8 49.7
00:45 1020 30.12 849 25.07 16.6 62 63 9.6 49.2
00:50 1020 30.12 849 25.07 16.8 62.2 62 9.6 49.3
00:55 1020 30.12 849 25.07 16.8 62.2 62 9.6 49.3
01:00 1020 30.12 849 25.07 16.7 62.1 64 9.9 49.8
01:05 1020 30.12 849 25.07 16.4 61.6 66 10.2 50.4
01:10 1019 30.09 849 25.07 16.3 61.3 69 10.7 51.2
01:15 1020 30.12 849 25.07 16 60.7 70 10.5 51
01:20 1020 30.12 849 25.07 15.8 60.4 71 10.7 51.2
01:25 1020 30.12 849 25.07 15.8 60.4 72 10.7 51.2
01:30 1019 30.09 849 25.07 15.5 59.9 76 11.3 52.4
01:35 1019 30.09 849 25.07 15.3 59.5 76 11.1 52
01:40 1019 30.09 848 25.04 14.8 58.7 77 10.8 51.5
01:45 1019 30.09 848 25.04 14.7 58.4 77 10.8 51.4
01:50 1019 30.09 848 25.04 14.6 58.2 77 10.6 51
01:55 1019 30.09 848 25.04 14.5 58.2 76 10.4 50.8
02:00 1019 30.09 848 25.04 14.8 58.6 73 10.1 50.2
02:05 1019 30.09 848 25.04 15.1 59.1 68 9.3 48.7
02:10 1019 30.09 848 25.04 15.7 60.2 67 9.6 49.3
02:15 1019 30.09 848 25.04 15.5 59.9 68 9.7 49.4
02:20 1019 30.09 848 25.04 15.3 59.6 69 9.8 49.6
02:25 1019 30.09 848 25.04 15 59.1 75 10.7 51.3
02:30 1019 30.09 848 25.04 14.9 58.9 68 9.2 48.6
02:35 1019 30.09 848 25.04 15.1 59.2 70 9.6 49.4
02:40 1019 30.09 848 25.04 15.2 59.4 66 8.9 48
02:45 1018 30.06 848 25.04 15.1 59.1 67 9.1 48.4
02:50 1018 30.06 848 25.04 14.8 58.7 68 9 48.2
02:55 1019 30.09 848 25.04 14.9 58.8 66 8.7 47.6
03:00 1019 30.09 848 25.04 15.2 59.3 65 8.7 47.6
03:05 1018 30.06 848 25.04 15.2 59.3 65 8.7 47.6
03:10 1018 30.06 847 25.01 15 59.1 66 8.7 47.7
03:15 1018 30.06 847 25.01 14.9 58.8 67 8.8 47.8
03:20 1018 30.06 847 25.01 15 59 65 8.5 47.3
03:25 1018 30.06 847 25.01 15.1 59.2 64 8.4 47.1
03:30 1018 30.06 847 25.01 15 59.1 65 8.6 47.4
03:35 1018 30.06 847 25.01 14.8 58.6 66 8.7 47.6
03:40 1018 30.06 847 25.01 14.7 58.4 67 8.6 47.5
03:45 1018 30.06 847 25.01 14.7 58.4 72 9.7 49.5
03:50 1018 30.06 847 25.01 14.7 58.5 67 8.8 47.8
03:55 1018 30.06 847 25.01 15 59 65 8.4 47.2
04:00 1018 30.06 847 25.01 14.9 58.7 66 8.7 47.6
04:05 1018 30.06 847 25.01 14.9 58.8 66 8.8 47.8
04:10 1018 30.06 847 25.01 14.7 58.4 67 8.8 47.8
04:15 1018 30.06 847 25.01 14.4 57.9 69 8.8 47.8
04:20 1018 30.06 847 25.01 14.2 57.5 69 8.6 47.5
04:25 1018 30.06 847 25.01 14 57.2 69 8.5 47.4
04:30 1018 30.06 847 25.01 14.3 57.8 67 8.3 46.9
04:35 1018 30.06 847 25.01 14.5 58 67 8.4 47.2
04:40 1018 30.06 847 25.01 14.4 57.9 67 8.5 47.3
04:45 1018 30.06 847 25.01 14.3 57.7 69 8.6 47.6
04:50 1018 30.06 847 25.01 13.9 57.1 71 8.8 47.8
04:55 1018 30.06 847 25.01 13.8 56.8 72 8.8 47.8
05:00 1018 30.06 847 25.01 13.5 56.2 73 8.8 47.9
05:05 1018 30.06 847 25.01 13.3 55.9 73 8.7 47.6
05:10 1018 30.06 847 25.01 13.2 55.8 73 8.6 47.5
05:15 1018 30.06 847 25.01 13.2 55.8 72 8.3 47
05:20 1018 30.06 847 25.01 13.3 56 72 8.4 47.1
05:25 1018 30.06 847 25.01 13.4 56.2 72 8.6 47.5
05:30 1018 30.06 847 25.01 13.2 55.7 73 8.6 47.5
05:35 1018 30.06 847 25.01 12.8 55.1 75 8.5 47.3
05:40 1018 30.06 847 25.01 12.6 54.7 77 8.7 47.6
05:45 1018 30.06 847 25.01 12.4 54.4 77 8.5 47.3
05:50 1018 30.06 847 25.01 12.4 54.4 76 8.4 47.2
05:55 1018 30.06 847 25.01 12.6 54.7 76 8.5 47.4
06:00 1018 30.06 847 25.01 12.2 54 78 8.5 47.4
06:05 1018 30.06 847 25.01 12.1 53.8 77 8.3 47
06:10 1018 30.06 847 25.01 12.3 54.1 76 8.2 46.7
06:15 1018 30.06 848 25.04 12.4 54.2 77 8.4 47.2
06:20 1018 30.06 848 25.04 12.2 54 77 8.3 46.9
06:25 1018 30.06 848 25.04 12.3 54.1 76 8.3 46.9
06:30 1018 30.06 848 25.04 12.4 54.3 76 8.2 46.8
06:35 1019 30.09 848 25.04 12.5 54.4 77 8.6 47.4
06:40 1019 30.09 848 25.04 12.5 54.4 77 8.5 47.3
06:45 1019 30.09 848 25.04 12.3 54.1 78 8.5 47.3
06:50 1019 30.09 848 25.04 12.2 54 78 8.4 47.2
06:55 1019 30.09 848 25.04 12.3 54.1 77 8.4 47.2
07:00 1019 30.09 848 25.04 12.3 54.2 77 8.5 47.3
07:05 1019 30.09 848 25.04 12.4 54.3 77 8.5 47.4
07:10 1019 30.09 848 25.04 12.4 54.3 76 8.4 47.1
07:15 1019 30.09 848 25.04 12.5 54.6 75 8.2 46.8
07:20 1019 30.09 848 25.04 13.2 55.7 71 8.1 46.7
07:25 1019 30.09 848 25.04 14 57.2 69 8.5 47.2
07:30 1019 30.09 848 25.04 14.7 58.5 66 8.4 47.2
07:35 1019 30.09 848 25.04 14.5 58.1 67 8.5 47.3
07:40 1019 30.09 848 25.04 14.3 57.8 69 8.8 47.8
07:45 1019 30.09 848 25.04 14.2 57.6 69 8.7 47.6
07:50 1019 30.09 848 25.04 14.5 58.2 66 8.4 47.1
07:55 1019 30.09 848 25.04 14.8 58.7 68 9 48.3
08:00 1019 30.09 848 25.04 15.4 59.7 66 9.1 48.5
08:05 1019 30.09 848 25.04 16.6 61.8 61 9.1 48.4
08:10 1019 30.09 848 25.04 17.1 62.7 62 9.7 49.4
08:15 1019 30.09 848 25.04 16.7 62 62 9.5 49.2
08:20 1019 30.09 848 25.04 16.4 61.5 64 9.6 49.2
08:25 1019 30.09 848 25.04 16.6 61.8 60 8.8 47.9
08:30 1019 30.09 848 25.04 16.9 62.4 62 9.7 49.5
08:35 1018 30.06 848 25.04 16.9 62.5 61 9.4 48.9
08:40 1018 30.06 848 25.04 17.6 63.7 58 9.3 48.7
08:45 1018 30.06 848 25.04 17.5 63.6 61 10 50
08:50 1018 30.06 848 25.04 17.7 63.9 60 10 49.9
08:55 1018 30.06 848 25.04 17.8 64.1 60 10.1 50.1
09:00 1018 30.06 847 25.01 17.9 64.2 58 9.6 49.3
09:05 1018 30.06 847 25.01 18.4 65.1 56 9.6 49.3
09:10 1018 30.06 847 25.01 18.9 66 55 9.8 49.7
09:15 1018 30.06 847 25.01 18.6 65.5 56 9.7 49.5
09:20 1018 30.06 847 25.01 18.4 65.2 58 10.1 50.2
09:25 1018 30.06 847 25.01 18.8 65.8 56 9.9 49.8
09:30 1018 30.06 847 25.01 19 66.2 55 10 50
09:35 1018 30.06 847 25.01 19 66.3 56 10.2 50.3
09:40 1018 30.06 847 25.01 19.2 66.5 55 10.1 50.2
09:45 1018 30.06 847 25.01 19.2 66.5 57 10.7 51.2
09:50 1018 30.06 847 25.01 19.2 66.6 55 10.1 50.1
09:55 1018 30.06 847 25.01 19.7 67.5 53 9.9 49.8
10:00 1018 30.06 847 25.01 20.3 68.5 52 10.2 50.3
10:05 1018 30.06 847 25.01 21.1 70 47 9.4 48.9
10:10 1018 30.06 847 25.01 22 71.6 46 9.9 49.9
10:15 1018 30.06 847 25.01 23.3 73.9 42 9.7 49.5
10:20 1018 30.06 847 25.01 23.6 74.5 43 10.4 50.8
10:25 1018 30.06 847 25.01 23 73.4 43 10 50
10:30 1018 30.06 847 25.01 23.4 74 42 10 50
10:35 1018 30.06 847 25.01 23.2 73.8 44 10.4 50.6
10:40 1018 30.06 847 25.01 23.5 74.3 44 10.7 51.3
10:45 1018 30.06 847 25.01 23.4 74.1 45 11.1 52
10:50 1018 30.06 847 25.01 22.3 72.2 46 10.2 50.3
10:55 1018 30.06 847 25.01 22 71.5 45 9.7 49.4
11:00 1018 30.06 847 25.01 23 73.5 42 9.7 49.5
11:05 1018 30.06 847 25.01 23.4 74.2 40 9.4 48.9
11:10 1018 30.06 847 25.01 24.1 75.4 39 9.5 49.2
11:15 1018 30.06 847 25.01 24.2 75.6 40 10.1 50.1
11:20 1018 30.06 847 25.01 24 75.2 40 9.8 49.7
11:25 1018 30.06 847 25.01 23.8 74.9 40 9.6 49.3
11:30 1018 30.06 847 25.01 24 75.3 41 10.1 50.2
11:35 1018 30.06 847 25.01 24.3 75.8 39 9.8 49.6
11:40 1018 30.06 847 25.01 24.8 76.6 39 10.3 50.5
11:45 1018 30.06 847 25.01 24.8 76.7 39 10.1 50.1
11:50 1018 30.06 847 25.01 25 76.9 39 10.3 50.5
11:55 1018 30.06 847 25.01 25 76.9 40 10.7 51.2
12:00 1018 30.06 847 25.01 24.3 75.7 42 10.8 51.4
12:05 1018 30.06 847 25.01 23.8 74.8 42 10.5 50.8
12:10 1017 30.03 847 25.01 24.1 75.4 40 10 49.9
12:15 1017 30.03 847 25.01 24.2 75.6 37 8.8 47.8
12:20 1017 30.03 847 25.01 25 76.9 35 8.7 47.7
12:25 1017 30.03 846 24.98 25.1 77.2 35 9 48.1
12:30 1017 30.03 846 24.98 26.1 78.9 30 7.5 45.6
12:35 1017 30.03 846 24.98 26.1 79 30 7.6 45.8
12:40 1017 30.03 846 24.98 25.7 78.3 29 6.8 44.3
12:45 1017 30.03 846 24.98 25.9 78.6 31 7.6 45.8
12:50 1017 30.03 846 24.98 25.8 78.5 32 8 46.3
12:55 1017 30.03 846 24.98 26.8 80.3 30 7.9 46.3
13:00 1017 30.03 846 24.98 26.9 80.4 30 8.3 46.9
13:05 1017 30.03 846 24.98 26.8 80.2 31 8.4 47
13:10 1017 30.03 846 24.98 27 80.6 34 9.9 49.9
13:15 1017 30.03 846 24.98 25.9 78.6 31 7.9 46.2
13:20 1017 30.03 846 24.98 25.5 77.8 30 7.1 44.8
13:25 1017 30.03 846 24.98 26.3 79.3 27 6.2 43.2
13:30 1017 30.03 846 24.98 27.3 81.1 27 7 44.5
13:35 1016 30 846 24.98 27.7 81.9 26 6.9 44.4
13:40 1016 30 846 24.98 28 82.3 28 7.8 46
13:45 1016 30 846 24.98 27.9 82.2 26 7.1 44.8
13:50 1016 30 846 24.98 28.4 83 26 7.5 45.5
13:55 1016 30 845 24.95 28.9 84 25 6.9 44.5
14:00 1016 30 845 24.95 28.9 84 24 6.6 43.9
14:05 1016 30 845 24.95 28.8 83.8 25 6.9 44.4
14:10 1016 30 845 24.95 28 82.5 25 6.4 43.6
14:15 1016 30 845 24.95 27.6 81.8 25 6.4 43.5
14:20 1016 30 845 24.95 27.5 81.6 26 6.7 44.1
14:25 1016 30 845 24.95 28.4 83.2 24 6.1 43
14:30 1016 30 845 24.95 29.3 84.7 23 6.6 43.9
14:35 1016 30 845 24.95 28.8 83.9 25 7 44.5
14:40 1016 30 845 24.95 27.7 81.9 25 6.1 43
14:45 1016 30 845 24.95 28.4 83.1 24 6.4 43.5
14:50 1015 29.97 845 24.95 28.1 82.7 24 5.7 42.3
14:55 1015 29.97 845 24.95 28.2 82.7 23 5.5 41.9
15:00 1015 29.97 845 24.95 28.9 84 24 6.4 43.5
15:05 1015 29.97 845 24.95 28.7 83.6 24 6.4 43.4
15:10 1015 29.97 844 24.92 29.4 84.8 22 6.1 43
15:15 1015 29.97 844 24.92 30.7 87.3 21 6.5 43.7
15:20 1015 29.97 844 24.92 30.6 87.1 21 6.2 43.2
15:25 1015 29.97 844 24.92 29.8 85.7 22 6.2 43.1
15:30 1015 29.97 844 24.92 30.5 86.8 21 5.8 42.5
15:35 1015 29.97 844 24.92 31 87.8 21 6.7 44
15:40 1015 29.97 844 24.92 30.3 86.5 23 6.9 44.4
15:45 1015 29.97 844 24.92 30.7 87.2 22 7 44.7
15:50 1015 29.97 844 24.92 30.3 86.5 23 7.3 45.1
15:55 1015 29.97 844 24.92 30.1 86.2 22 6.6 43.9
16:00 1015 29.97 844 24.92 29.7 85.5 24 7.5 45.6
16:05 1015 29.97 844 24.92 28.3 83 26 7.3 45.2
16:10 1015 29.97 844 24.92 28.2 82.8 27 7.7 45.9
16:15 1015 29.97 844 24.92 28.2 82.7 27 7.9 46.2
16:20 1015 29.97 844 24.92 27.8 82.1 28 7.8 46
16:25 1014 29.94 844 24.92 27.5 81.5 30 8.6 47.5
16:30 1014 29.94 844 24.92 26.9 80.5 33 9.5 49.1
16:35 1014 29.94 844 24.92 25.6 78 40 11.3 52.3
16:40 1015 29.97 844 24.92 24.9 76.8 40 10.7 51.3
16:45 1015 29.97 844 24.92 24.7 76.4 43 11.5 52.8
16:50 1015 29.97 845 24.95 24.5 76 47 12.7 54.8
16:55 1016 30 845 24.95 23.8 74.8 51 13.2 55.8
17:00 1016 30 845 24.95 24.2 75.6 51 13.7 56.6
17:05 1016 30 845 24.95 24.5 76 41 10.5 50.9
17:10 1016 30 845 24.95 24.6 76.3 43 11.5 52.7
17:15 1016 30 845 24.95 24.8 76.6 40 10.3 50.6
17:20 1016 30 845 24.95 24 75.2 47 12.1 53.8
17:25 1016 30 845 24.95 23.3 74 46 11.3 52.4
17:30 1016 30 845 24.95 23 73.3 44 10.3 50.6
17:35 1016 30 845 24.95 22.9 73.3 46 10.9 51.6
17:40 1016 30 845 24.95 23.2 73.8 39 8.8 47.8
17:45 1016 30 845 24.95 23.3 73.9 37 7.9 46.2
17:50 1016 30 845 24.95 23.3 73.9 38 8.4 47.1
17:55 1015 29.97 845 24.95 23.3 74 39 9 48.1
18:00 1015 29.97 844 24.92 23.2 73.8 41 9.5 49.1
18:05 1015 29.97 844 24.92 23 73.5 45 10.5 50.9
18:10 1015 29.97 844 24.92 22.8 73.1 45 10.3 50.6
18:15 1015 29.97 844 24.92 22.7 72.8 43 9.6 49.2
18:20 1015 29.97 844 24.92 22.4 72.3 48 11 51.9
18:25 1015 29.97 844 24.92 22.2 71.9 48 10.9 51.5
18:30 1015 29.97 845 24.95 22.7 72.9 43 9.6 49.4
18:35 1015 29.97 844 24.92 23.1 73.5 41 9.3 48.8
18:40 1015 29.97 844 24.92 22.8 73 46 10.7 51.2
18:45 1015 29.97 844 24.92 22.5 72.5 43 9.4 49
18:50 1015 29.97 844 24.92 22.3 72.1 42 8.9 48
18:55 1015 29.97 844 24.92 22.5 72.5 40 8.4 47.1
19:00 1016 30 845 24.95 22.9 73.2 40 8.7 47.6
19:05 1017 30.03 846 24.98 22.8 73 36 7.3 45.2
19:10 1017 30.03 846 24.98 22.4 72.4 35 6.5 43.6
19:15 1017 30.03 846 24.98 21.9 71.5 35 6.1 43
19:20 1017 30.03 846 24.98 21.5 70.7 37 6.2 43.2
19:25 1017 30.03 846 24.98 21.2 70.1 37 6.2 43.2
19:30 1017 30.03 846 24.98 21 69.7 38 6.4 43.5
19:35 1017 30.03 847 25.01 20.8 69.4 39 6.5 43.7
19:40 1017 30.03 847 25.01 20.7 69.3 40 6.7 44
19:45 1018 30.06 847 25.01 20.7 69.3 41 7.1 44.7
19:50 1018 30.06 847 25.01 20.7 69.2 41 7.2 44.9
19:55 1018 30.06 847 25.01 20.5 69 41 7.1 44.9
20:00 1018 30.06 847 25.01 20.3 68.5 43 7.3 45.1
20:05 1018 30.06 847 25.01 20.1 68.1 42 7 44.5
20:10 1018 30.06 847 25.01 19.9 67.8 43 7.1 44.7
20:15 1018 30.06 847 25.01 19.7 67.5 43 6.9 44.5
20:20 1018 30.06 847 25.01 19.7 67.5 43 6.8 44.3
20:25 1018 30.06 847 25.01 19.7 67.5 42 6.6 43.9
20:30 1018 30.06 847 25.01 19.9 67.7 42 6.7 44
20:35 1018 30.06 847 25.01 20 68 41 6.4 43.6
20:40 1018 30.06 848 25.04 20.1 68.2 41 6.7 44.1
20:45 1019 30.09 848 25.04 19.7 67.5 47 8.2 46.7
20:50 1018 30.06 848 25.04 18.6 65.5 50 8.2 46.8
20:55 1018 30.06 847 25.01 18.5 65.3 50 8 46.4
21:00 1018 30.06 847 25.01 18.5 65.2 51 8.3 46.9
21:05 1018 30.06 847 25.01 18.2 64.8 52 8.3 47
21:10 1018 30.06 847 25.01 18.4 65.1 50 8 46.4
21:15 1018 30.06 847 25.01 18.4 65.2 49 7.7 45.9
21:20 1018 30.06 847 25.01 18.5 65.3 50 8 46.4
21:25 1018 30.06 848 25.04 18.3 64.9 52 8.4 47.1
21:30 1019 30.09 848 25.04 18 64.4 53 8.5 47.2
21:35 1019 30.09 848 25.04 17.9 64.2 52 8.1 46.5
21:40 1019 30.09 848 25.04 18 64.5 54 8.7 47.6
21:45 1019 30.09 848 25.04 18.2 64.8 57 9.5 49.2
21:50 1018 30.06 848 25.04 18.3 64.9 51 8.1 46.5
21:55 1018 30.06 847 25.01 18.1 64.6 53 8.5 47.3
22:00 1018 30.06 847 25.01 17.8 64.1 52 8 46.3
22:05 1018 30.06 847 25.01 18 64.4 50 7.6 45.7
22:10 1018 30.06 847 25.01 18.1 64.5 51 7.8 46.1
22:15 1018 30.06 847 25.01 17.9 64.2 53 8.3 46.9
22:20 1018 30.06 847 25.01 17.7 63.8 55 8.6 47.4
22:25 1018 30.06 847 25.01 17.3 63.1 56 8.6 47.6
22:30 1017 30.03 847 25.01 17.2 63 56 8.4 47.2
22:35 1017 30.03 847 25.01 17.1 62.8 58 8.7 47.7
22:40 1017 30.03 846 24.98 16.8 62.3 59 8.9 47.9
22:45 1017 30.03 846 24.98 16.7 62 61 9.2 48.5
22:50 1017 30.03 846 24.98 16.4 61.5 62 9.2 48.6
22:55 1017 30.03 846 24.98 16.3 61.4 62 9 48.2
23:00 1017 30.03 846 24.98 16.3 61.3 62 9.2 48.5
23:05 1017 30.03 846 24.98 16 60.8 64 9.4 48.9
23:10 1017 30.03 846 24.98 15.8 60.5 65 9.4 48.8
23:15 1017 30.03 846 24.98 15.8 60.5 65 9.4 48.9
23:20 1017 30.03 846 24.98 15.8 60.5 65 9.3 48.8
23:25 1017 30.03 846 24.98 15.9 60.6 63 9 48.2
23:30 1017 30.03 846 24.98 16 60.8 63 8.9 48.1
23:35 1017 30.03 846 24.98 16.1 61 62 8.9 48.1
23:40 1017 30.03 846 24.98 16.2 61.2 61 8.8 47.8
23:45 1016 30 846 24.98 16.3 61.4 61 8.8 47.8
23:50 1016 30 845 24.95 16.5 61.6 58 8.3 47
23:55 1016 30 845 24.95 16.6 61.9 58 8.4 47.2
24:00 1016 30 845 24.95 16.6 61.9 58 8.5 47.3